BCS5KW EDDS-EDDH
Flight info
| Callsign | BCS5KW |
|---|---|
| Flight time | 0h 48m |
| Altitude | 33000 |
| Route | OKIBA4H OKIBA N851 RIMKI Z99 LOHRE DCT MASEK DCT ELNAT/N0477F320 P605 NOLGO NOLGO3P |
| Aircraft | B77L/H-SDE1E2E3FGHIJ2J3J4J5M1RWXY/LB1D1 |
Departure
| Time | 2026-05-04 16:07 |
|---|---|
| Airport | Stuttgart Airport (EDDS) |
Arrival
| Time | 2026-05-04 16:56 |
|---|---|
| Airport | Hamburg Helmut Schmidt Airport (EDDH) |
| Time | Latitude | Longitude | Altitude | Speed | Heading |
|---|---|---|---|---|---|
| 2026-05-04 15:50 | 48.68400 | 9.20736 | 1290 ft | 0 kts | 163° |
| 2026-05-04 15:53 | 48.68401 | 9.20736 | 1290 ft | 0 kts | 163° |
| 2026-05-04 15:58 | 48.68417 | 9.20728 | 1290 ft | 4 kts | 163° |
| 2026-05-04 15:59 | 48.68440 | 9.20718 | 1290 ft | 4 kts | 172° |
| 2026-05-04 15:59 | 48.68461 | 9.20723 | 1290 ft | 4 kts | 238° |
| 2026-05-04 15:59 | 48.68469 | 9.20759 | 1290 ft | 3 kts | 255° |
| 2026-05-04 15:59 | 48.68470 | 9.20763 | 1290 ft | 0 kts | 254° |
| 2026-05-04 16:01 | 48.68470 | 9.20764 | 1290 ft | 0 kts | 254° |
| 2026-05-04 16:02 | 48.68455 | 9.20683 | 1290 ft | 7 kts | 254° |
| 2026-05-04 16:03 | 48.68439 | 9.20602 | 1290 ft | 12 kts | 254° |
| 2026-05-04 16:03 | 48.68410 | 9.20443 | 1290 ft | 16 kts | 254° |
| 2026-05-04 16:03 | 48.68389 | 9.20332 | 1290 ft | 16 kts | 254° |
| 2026-05-04 16:03 | 48.68363 | 9.20198 | 1290 ft | 12 kts | 253° |
| 2026-05-04 16:04 | 48.68397 | 9.20107 | 1290 ft | 10 kts | 334° |
| 2026-05-04 16:04 | 48.68424 | 9.20093 | 1290 ft | 1 kts | 343° |
| 2026-05-04 16:04 | 48.68434 | 9.20089 | 1290 ft | 2 kts | 343° |
| 2026-05-04 16:05 | 48.68448 | 9.20082 | 1290 ft | 4 kts | 343° |
| 2026-05-04 16:05 | 48.68485 | 9.20066 | 1290 ft | 6 kts | 343° |
| 2026-05-04 16:05 | 48.68573 | 9.20066 | 1290 ft | 8 kts | 36° |
| 2026-05-04 16:06 | 48.68598 | 9.20142 | 1290 ft | 8 kts | 73° |
| 2026-05-04 16:06 | 48.69052 | 9.22522 | 1292 ft | 173 kts | 75° |
| 2026-05-04 16:07 | 48.69388 | 9.24398 | 1731 ft | 187 kts | 73° |
| 2026-05-04 16:07 | 48.70464 | 9.30246 | 3352 ft | 213 kts | 72° |
| 2026-05-04 16:08 | 48.70894 | 9.32511 | 3529 ft | 237 kts | 72° |
| 2026-05-04 16:08 | 48.72382 | 9.40300 | 5232 ft | 266 kts | 73° |
| 2026-05-04 16:09 | 48.73444 | 9.45830 | 6593 ft | 277 kts | 74° |
| 2026-05-04 16:09 | 48.76224 | 9.49720 | 7781 ft | 292 kts | 9° |
| 2026-05-04 16:10 | 48.80219 | 9.49010 | 9153 ft | 295 kts | 343° |
| 2026-05-04 16:11 | 48.86361 | 9.46399 | 10600 ft | 331 kts | 342° |
| 2026-05-04 16:11 | 48.88658 | 9.45409 | 10788 ft | 354 kts | 342° |
| 2026-05-04 16:12 | 48.96262 | 9.42197 | 12412 ft | 391 kts | 342° |
| 2026-05-04 16:12 | 49.04264 | 9.38851 | 14901 ft | 404 kts | 342° |
| 2026-05-04 16:13 | 49.09740 | 9.36552 | 16288 ft | 416 kts | 342° |
| 2026-05-04 16:13 | 49.15403 | 9.34171 | 17672 ft | 428 kts | 342° |
| 2026-05-04 16:14 | 49.21225 | 9.31869 | 19085 ft | 435 kts | 347° |
| 2026-05-04 16:14 | 49.27310 | 9.31059 | 20430 ft | 443 kts | 356° |
| 2026-05-04 16:15 | 49.36713 | 9.30608 | 22196 ft | 458 kts | 1° |
| 2026-05-04 16:16 | 49.43094 | 9.31525 | 23308 ft | 468 kts | 4° |
| 2026-05-04 16:16 | 49.52954 | 9.33105 | 24822 ft | 480 kts | 3° |
| 2026-05-04 16:17 | 49.59649 | 9.34113 | 25766 ft | 487 kts | 3° |
| 2026-05-04 16:18 | 49.69906 | 9.35646 | 27062 ft | 500 kts | 3° |
| 2026-05-04 16:18 | 49.73386 | 9.36179 | 27541 ft | 503 kts | 4° |
| 2026-05-04 16:19 | 49.83728 | 9.39652 | 28827 ft | 515 kts | 12° |
| 2026-05-04 16:19 | 49.90677 | 9.42427 | 29961 ft | 513 kts | 11° |
| 2026-05-04 16:20 | 50.01049 | 9.46417 | 30966 ft | 514 kts | 11° |
| 2026-05-04 16:20 | 50.07982 | 9.48905 | 30981 ft | 506 kts | 6° |
| 2026-05-04 16:22 | 50.25363 | 9.51731 | 30964 ft | 503 kts | 2° |
| 2026-05-04 16:23 | 50.46333 | 9.55266 | 30964 ft | 505 kts | 3° |
| 2026-05-04 16:25 | 50.67289 | 9.58838 | 30959 ft | 505 kts | 3° |
| 2026-05-04 16:26 | 50.81431 | 9.61407 | 30961 ft | 523 kts | 4° |
| 2026-05-04 16:26 | 50.92424 | 9.63595 | 30959 ft | 536 kts | 4° |
| 2026-05-04 16:28 | 51.11143 | 9.67271 | 30943 ft | 545 kts | 4° |
| 2026-05-04 16:29 | 51.37378 | 9.71839 | 30960 ft | 539 kts | 2° |
| 2026-05-04 16:31 | 51.55951 | 9.75084 | 30956 ft | 537 kts | 4° |
| 2026-05-04 16:32 | 51.78195 | 9.79351 | 30956 ft | 538 kts | 4° |
| 2026-05-04 16:33 | 51.93124 | 9.82210 | 30966 ft | 541 kts | 3° |
| 2026-05-04 16:34 | 52.04356 | 9.84374 | 30966 ft | 543 kts | 3° |
| 2026-05-04 16:35 | 52.26757 | 9.88834 | 30395 ft | 527 kts | 4° |
| 2026-05-04 16:36 | 52.30354 | 9.89628 | 29981 ft | 517 kts | 4° |
| 2026-05-04 16:36 | 52.37368 | 9.91175 | 29092 ft | 502 kts | 3° |
| 2026-05-04 16:37 | 52.44259 | 9.92672 | 28209 ft | 496 kts | 3° |
| 2026-05-04 16:37 | 52.47679 | 9.93411 | 27608 ft | 496 kts | 3° |
| 2026-05-04 16:37 | 52.54513 | 9.94890 | 26331 ft | 492 kts | 3° |
| 2026-05-04 16:38 | 52.61254 | 9.96359 | 25112 ft | 485 kts | 3° |
| 2026-05-04 16:39 | 52.71133 | 9.98522 | 23341 ft | 474 kts | 4° |
| 2026-05-04 16:39 | 52.77637 | 9.99950 | 21997 ft | 468 kts | 4° |
| 2026-05-04 16:40 | 52.84053 | 10.01363 | 20729 ft | 461 kts | 4° |
| 2026-05-04 16:40 | 52.90368 | 10.02758 | 19496 ft | 454 kts | 4° |
| 2026-05-04 16:41 | 52.96558 | 10.04130 | 18318 ft | 448 kts | 4° |
| 2026-05-04 16:41 | 53.05724 | 10.06168 | 16368 ft | 438 kts | 5° |
| 2026-05-04 16:42 | 53.14678 | 10.08168 | 14515 ft | 427 kts | 5° |
| 2026-05-04 16:43 | 53.20494 | 10.09473 | 13445 ft | 402 kts | 5° |
| 2026-05-04 16:43 | 53.25664 | 10.10645 | 12158 ft | 356 kts | 5° |
| 2026-05-04 16:43 | 53.28051 | 10.11182 | 11606 ft | 336 kts | 5° |
| 2026-05-04 16:44 | 53.36437 | 10.13780 | 9620 ft | 287 kts | 14° |
| 2026-05-04 16:45 | 53.40251 | 10.15725 | 8810 ft | 287 kts | 14° |
| 2026-05-04 16:46 | 53.45810 | 10.18470 | 7538 ft | 264 kts | 13° |
| 2026-05-04 16:46 | 53.49254 | 10.20137 | 6856 ft | 254 kts | 13° |
| 2026-05-04 16:47 | 53.52602 | 10.21749 | 6228 ft | 247 kts | 13° |
| 2026-05-04 16:47 | 53.55330 | 10.23061 | 5721 ft | 244 kts | 13° |
| 2026-05-04 16:48 | 53.60199 | 10.25408 | 4815 ft | 238 kts | 12° |
| 2026-05-04 16:48 | 53.61772 | 10.26167 | 4534 ft | 232 kts | 12° |
| 2026-05-04 16:49 | 53.64793 | 10.27631 | 3986 ft | 220 kts | 12° |
| 2026-05-04 16:49 | 53.67407 | 10.29622 | 3459 ft | 199 kts | 47° |
| 2026-05-04 16:50 | 53.69332 | 10.32891 | 3072 ft | 191 kts | 15° |
| 2026-05-04 16:50 | 53.71576 | 10.31629 | 3004 ft | 178 kts | 306° |
| 2026-05-04 16:51 | 53.73006 | 10.28198 | 2993 ft | 176 kts | 297° |
| 2026-05-04 16:51 | 53.73547 | 10.26389 | 2999 ft | 174 kts | 294° |
| 2026-05-04 16:51 | 53.74072 | 10.22587 | 3003 ft | 176 kts | 250° |
| 2026-05-04 16:52 | 53.72752 | 10.18955 | 2913 ft | 185 kts | 239° |
| 2026-05-04 16:52 | 53.72029 | 10.17180 | 2662 ft | 181 kts | 236° |
| 2026-05-04 16:53 | 53.70476 | 10.13924 | 2195 ft | 179 kts | 233° |
| 2026-05-04 16:53 | 53.68156 | 10.09213 | 1463 ft | 164 kts | 234° |
| 2026-05-04 16:54 | 53.67453 | 10.07781 | 1229 ft | 154 kts | 233° |
| 2026-05-04 16:55 | 53.64729 | 10.02251 | 408 ft | 154 kts | 233° |
| 2026-05-04 16:55 | 53.63394 | 9.99553 | 56 ft | 141 kts | 235° |
| 2026-05-04 16:56 | 53.62561 | 9.97858 | 45 ft | 24 kts | 230° |
| 2026-05-04 16:56 | 53.62473 | 9.98110 | 48 ft | 14 kts | 53° |
| 2026-05-04 16:57 | 53.62535 | 9.98239 | 47 ft | 14 kts | 51° |
| 2026-05-04 16:57 | 53.62660 | 9.98493 | 45 ft | 14 kts | 50° |
| 2026-05-04 16:58 | 53.62839 | 9.98878 | 48 ft | 13 kts | 88° |
| 2026-05-04 16:58 | 53.62777 | 9.98979 | 48 ft | 9 kts | 152° |
| 2026-05-04 16:59 | 53.62784 | 9.99146 | 47 ft | 0 kts | 63° |
| 2026-05-04 17:00 | 53.62784 | 9.99145 | 51 ft | 0 kts | 63° |